Time;durP1;ratioP1;P1;durP2;ratioP2;P2;SDS_P1;SDS_P2;PMS_P1;PMS_P2;Temp;Humidity;BMP_temperature;BMP_pressure;BME280_temperature;BME280_humidity;BME280_pressure;Samples;Min_cycle;Max_cycle;Signal;HPM_P1;HPM_P2
2023/01/02 00:00:25;;;;;;;12.43;9.23;;;9.80;1.00;;;;;;5007005;28;20183;-64
2023/01/02 00:02:50;;;;;;;18.87;11.77;;;9.70;1.00;;;;;;5008451;28;20405;-65
2023/01/02 00:05:16;;;;;;;17.57;10.90;;;9.80;1.00;;;;;;5003168;28;20559;-65
2023/01/02 00:07:42;;;;;;;13.83;10.53;;;9.80;1.00;;;;;;5009617;28;20192;-65
2023/01/02 00:10:08;;;;;;;13.80;10.57;;;9.80;1.00;;;;;;5004511;28;20269;-65
2023/01/02 00:12:33;;;;;;;15.23;11.30;;;9.80;1.00;;;;;;5003692;28;20177;-65
2023/01/02 00:14:59;;;;;;;13.23;10.57;;;9.80;3.60;;;;;;5004960;28;20259;-65
2023/01/02 00:17:25;;;;;;;14.40;10.33;;;9.80;1.00;;;;;;5005259;28;20220;-65
2023/01/02 00:19:50;;;;;;;11.37;10.20;;;9.80;1.00;;;;;;5004554;28;20168;-65
2023/01/02 00:22:16;;;;;;;12.93;10.20;;;9.70;1.00;;;;;;4998486;28;20180;-65
2023/01/02 00:24:42;;;;;;;15.17;10.30;;;9.70;99.90;;;;;;4999213;28;20231;-64
2023/01/02 00:27:07;;;;;;;19.13;11.57;;;9.70;99.90;;;;;;5003984;28;20215;-65
2023/01/02 00:29:33;;;;;;;13.13;10.00;;;9.70;99.90;;;;;;5008364;28;20180;-64
2023/01/02 00:31:59;;;;;;;12.03;9.63;;;9.80;65.90;;;;;;5001490;28;20177;-65
2023/01/02 00:34:25;;;;;;;14.07;10.27;;;9.70;99.90;;;;;;4996301;28;20589;-65
2023/01/02 00:36:50;;;;;;;14.50;10.07;;;9.70;99.90;;;;;;4992264;28;20204;-65
2023/01/02 00:39:16;;;;;;;11.47;10.30;;;9.70;99.90;;;;;;5010330;28;20987;-65
2023/01/02 00:41:42;;;;;;;16.10;10.10;;;9.70;99.90;;;;;;5009968;28;20183;-64
2023/01/02 00:44:07;;;;;;;14.60;10.77;;;9.70;99.90;;;;;;5009866;28;20208;-65
2023/01/02 00:46:33;;;;;;;11.70;10.07;;;9.70;99.90;;;;;;5010663;28;20680;-65
2023/01/02 00:48:59;;;;;;;12.90;10.53;;;9.60;99.90;;;;;;5010569;28;20283;-64
2023/01/02 00:51:24;;;;;;;13.40;10.40;;;9.60;99.90;;;;;;5009955;28;20222;-64
2023/01/02 00:53:50;;;;;;;13.83;10.83;;;9.60;1.00;;;;;;5007774;28;20529;-64
2023/01/02 00:56:16;;;;;;;13.70;10.30;;;9.50;1.00;;;;;;4990709;28;20192;-65
2023/01/02 00:58:41;;;;;;;15.03;10.87;;;9.50;1.00;;;;;;4990686;28;20165;-65
2023/01/02 01:01:07;;;;;;;14.00;10.77;;;9.60;1.00;;;;;;4989652;28;20538;-65
2023/01/02 01:03:33;;;;;;;11.57;10.37;;;9.60;99.90;;;;;;4989681;28;20228;-64
2023/01/02 01:06:04;;;;;;;14.90;9.87;;;9.60;23.10;;;;;;4991588;28;20264;-65
2023/01/02 01:08:29;;;;;;;20.47;11.37;;;9.60;90.90;;;;;;5003402;28;20275;-65
2023/01/02 01:10:55;;;;;;;13.00;9.93;;;9.60;99.90;;;;;;4996755;28;20483;-65
2023/01/02 01:13:21;;;;;;;29.33;11.53;;;9.50;1.00;;;;;;5001272;28;20183;-65
2023/01/02 01:15:46;;;;;;;14.57;10.20;;;9.50;17.50;;;;;;5001159;28;20180;-65
2023/01/02 01:18:12;;;;;;;10.53;9.43;;;9.40;1.00;;;;;;5003338;28;20712;-66
2023/01/02 01:20:38;;;;;;;10.97;9.57;;;9.40;1.00;;;;;;5005690;28;20299;-65
2023/01/02 01:23:04;;;;;;;16.77;10.77;;;9.50;1.00;;;;;;5000417;28;20608;-65
2023/01/02 01:25:29;;;;;;;11.40;9.83;;;9.40;1.00;;;;;;4999368;28;20432;-64
2023/01/02 01:27:55;;;;;;;11.70;10.57;;;9.40;1.00;;;;;;4995870;28;20235;-64
2023/01/02 01:30:21;;;;;;;11.30;10.10;;;9.40;1.00;;;;;;5006543;28;20176;-65
2023/01/02 01:32:46;;;;;;;11.37;8.73;;;9.40;1.00;;;;;;5003053;28;20184;-65
2023/01/02 01:35:12;;;;;;;16.93;10.07;;;9.40;1.00;;;;;;5006478;28;20243;-65
2023/01/02 01:37:38;;;;;;;13.00;10.13;;;9.40;1.00;;;;;;5007348;28;20196;-65
2023/01/02 01:40:05;;;;;;;12.00;9.43;;;9.40;1.00;;;;;;5006975;28;20620;-65
2023/01/02 01:42:34;;;;;;;10.43;9.23;;;9.40;1.00;;;;;;5000145;28;20458;-65
2023/01/02 01:45:01;;;;;;;10.50;9.33;;;9.30;1.00;;;;;;5001496;28;20434;-65
2023/01/02 01:47:51;;;;;;;13.50;9.67;;;9.30;1.00;;;;;;5004423;28;20439;-64
2023/01/02 01:50:33;;;;;;;12.57;10.00;;;9.30;1.00;;;;;;5000618;28;20840;-65
2023/01/02 01:53:09;;;;;;;13.30;9.70;;;9.20;1.00;;;;;;4988265;28;20438;-65
2023/01/02 01:55:45;;;;;;;10.97;9.23;;;9.20;1.00;;;;;;5004797;28;20554;-64
2023/01/02 01:58:15;;;;;;;12.63;10.30;;;9.10;1.00;;;;;;5003032;28;20434;-64
2023/01/02 02:00:41;;;;;;;11.23;9.70;;;9.20;84.20;;;;;;5006113;28;20431;-65
2023/01/02 02:03:12;;;;;;;17.50;10.10;;;9.20;1.00;;;;;;5007447;28;20463;-64
2023/01/02 02:05:40;;;;;;;16.20;8.93;;;9.00;99.90;;;;;;5001700;28;20435;-65
2023/01/02 02:08:25;;;;;;;27.97;11.10;;;9.00;99.90;;;;;;5004456;28;20458;-65
2023/01/02 02:10:53;;;;;;;16.40;9.77;;;9.20;99.90;;;;;;4999038;28;20423;-65
2023/01/02 02:13:18;;;;;;;13.97;8.33;;;9.10;99.90;;;;;;5000042;28;20749;-64
2023/01/02 02:16:05;;;;;;;10.90;9.10;;;8.80;1.00;;;;;;5005546;28;20441;-65
2023/01/02 02:18:53;;;;;;;13.67;10.00;;;8.80;34.00;;;;;;4989184;28;20283;-64
2023/01/02 02:21:56;;;;;;;9.00;8.00;;;8.70;99.90;;;;;;5005363;28;20803;-64
2023/01/02 02:24:31;;;;;;;10.43;9.23;;;8.90;1.00;;;;;;5003638;28;20481;-64
2023/01/02 02:27:02;;;;;;;13.83;9.93;;;8.90;1.00;;;;;;5005531;28;20498;-65
2023/01/02 02:29:43;;;;;;;9.63;8.70;;;8.90;1.00;;;;;;5007198;28;21031;-64
2023/01/02 02:32:29;;;;;;;13.27;9.20;;;8.90;1.00;;;;;;5009090;28;20721;-64
2023/01/02 02:35:13;;;;;;;13.70;8.53;;;9.00;1.00;;;;;;5001668;28;20424;-66
2023/01/02 02:38:10;;;;;;;11.57;8.57;;;9.00;1.00;;;;;;5012358;28;20438;-63
2023/01/02 02:40:54;;;;;;;13.77;9.47;;;8.60;99.90;;;;;;4992617;28;20397;-63
2023/01/02 02:43:50;;;;;;;13.67;10.37;;;8.60;99.90;;;;;;5009966;28;20633;-64
2023/01/02 02:46:51;;;;;;;10.30;9.20;;;8.60;99.90;;;;;;5012291;28;20427;-64
2023/01/02 02:49:38;;;;;;;16.97;8.70;;;8.60;99.90;;;;;;5009681;28;20505;-64
2023/01/02 02:52:09;;;;;;;11.87;8.37;;;8.80;38.50;;;;;;5011081;28;20423;-64
2023/01/02 02:54:48;;;;;;;13.43;8.73;;;8.90;1.00;;;;;;5011124;28;20471;-64
2023/01/02 02:57:14;;;;;;;19.33;8.67;;;8.90;1.00;;;;;;5011225;28;20764;-64
2023/01/02 02:59:41;;;;;;;19.50;9.07;;;9.00;1.00;;;;;;5010084;28;20481;-64
2023/01/02 03:02:07;;;;;;;11.30;8.70;;;9.10;1.00;;;;;;4991650;28;20766;-64
2023/01/02 03:04:33;;;;;;;9.00;8.00;;;9.00;1.00;;;;;;5010549;28;20569;-64
2023/01/02 03:07:17;;;;;;;10.27;8.20;;;9.10;1.00;;;;;;5011234;28;20884;-63
2023/01/02 03:10:08;;;;;;;11.13;7.60;;;9.10;1.00;;;;;;5005751;28;20251;-64
2023/01/02 03:12:41;;;;;;;11.90;9.30;;;9.10;99.90;;;;;;5004314;28;20506;-64
2023/01/02 03:15:24;;;;;;;11.73;8.40;;;9.10;99.90;;;;;;5004181;28;20426;-64
2023/01/02 03:18:13;;;;;;;13.63;7.97;;;9.10;99.90;;;;;;5002054;28;21000;-67
2023/01/02 03:21:07;;;;;;;10.80;8.63;;;9.10;99.90;;;;;;4998941;28;20462;-64
2023/01/02 03:23:40;;;;;;;9.67;8.47;;;9.10;99.90;;;;;;5003294;28;20470;-64
2023/01/02 03:26:06;;;;;;;11.90;8.47;;;9.00;99.90;;;;;;4998123;28;20499;-65
2023/01/02 03:28:33;;;;;;;10.03;8.10;;;9.10;99.90;;;;;;5004913;28;20769;-64
2023/01/02 03:31:01;;;;;;;11.47;8.73;;;9.10;57.50;;;;;;5006565;28;20438;-64
2023/01/02 03:33:31;;;;;;;13.37;7.93;;;9.00;52.70;;;;;;5005808;28;20432;-65
2023/01/02 03:36:03;;;;;;;9.20;6.90;;;9.10;1.00;;;;;;4983808;28;20471;-64
2023/01/02 03:38:43;;;;;;;11.60;7.80;;;9.00;1.00;;;;;;4999134;28;20434;-64
2023/01/02 03:41:13;;;;;;;19.37;9.50;;;8.90;99.90;;;;;;5005730;28;20431;-64
2023/01/02 03:43:40;;;;;;;8.00;6.57;;;8.90;99.90;;;;;;5006718;28;20553;-65
2023/01/02 03:46:17;;;;;;;18.47;9.27;;;8.90;99.90;;;;;;5006202;28;20908;-65
2023/01/02 03:48:59;;;;;;;14.37;8.17;;;8.90;99.90;;;;;;4991498;28;20424;-64
2023/01/02 03:51:25;;;;;;;8.57;7.57;;;8.90;99.90;;;;;;5008496;28;20518;-65
2023/01/02 03:53:51;;;;;;;16.70;9.10;;;8.80;99.90;;;;;;5010335;28;20502;-65
2023/01/02 03:56:45;;;;;;;9.93;8.27;;;8.80;99.90;;;;;;5009958;28;20204;-65
2023/01/02 03:59:45;;;;;;;10.37;8.07;;;8.80;99.90;;;;;;5007522;28;20427;-64
2023/01/02 04:02:45;;;;;;;11.43;10.20;;;8.80;92.40;;;;;;5009031;28;20428;-65
2023/01/02 04:05:16;;;;;;;11.27;7.73;;;8.80;99.90;;;;;;5002381;28;20518;-64
2023/01/02 04:07:56;;;;;;;8.83;7.67;;;8.70;99.90;;;;;;5008629;28;20490;-65
2023/01/02 04:10:24;;;;;;;13.67;8.20;;;8.70;99.90;;;;;;5005794;28;20620;-65
2023/01/02 04:12:55;;;;;;;10.03;8.10;;;8.40;1.00;;;;;;5009957;28;20426;-65
2023/01/02 04:15:27;;;;;;;11.30;8.97;;;8.40;35.50;;;;;;5008932;28;20431;-65
2023/01/02 04:18:00;;;;;;;10.10;7.80;;;8.30;99.90;;;;;;5009288;28;21054;-65
2023/01/02 04:20:32;;;;;;;11.43;7.63;;;8.40;58.10;;;;;;5007771;28;20493;-65
2023/01/02 04:23:08;;;;;;;8.37;7.03;;;8.50;90.80;;;;;;5009760;28;20826;-64
2023/01/02 04:25:51;;;;;;;8.20;7.47;;;8.50;1.00;;;;;;5009295;28;20438;-64
2023/01/02 04:28:28;;;;;;;9.70;7.70;;;8.40;1.00;;;;;;5008614;28;20435;-64
2023/01/02 04:31:07;;;;;;;10.33;8.30;;;8.40;62.70;;;;;;5004698;28;20437;-65
2023/01/02 04:33:38;;;;;;;16.53;9.07;;;8.50;1.00;;;;;;5008663;28;20450;-65
2023/01/02 04:36:12;;;;;;;13.37;8.60;;;8.60;1.00;;;;;;5009647;28;20451;-64
2023/01/02 04:38:38;;;;;;;10.30;8.80;;;8.70;1.00;;;;;;5010532;28;20829;-65
2023/01/02 04:41:06;;;;;;;7.97;7.17;;;8.70;1.00;;;;;;5009857;28;20426;-64
2023/01/02 04:43:32;;;;;;;7.13;6.43;;;8.50;1.00;;;;;;5010671;28;20459;-64
2023/01/02 04:45:58;;;;;;;9.70;7.50;;;8.50;1.00;;;;;;5010135;28;20433;-65
2023/01/02 04:48:24;;;;;;;12.07;8.03;;;8.40;1.00;;;;;;5010517;28;20227;-65
2023/01/02 04:50:49;;;;;;;12.63;7.57;;;8.50;1.00;;;;;;5009839;28;20514;-65
2023/01/02 04:53:15;;;;;;;11.60;8.90;;;8.50;1.00;;;;;;5005815;28;20459;-65
2023/01/02 04:55:41;;;;;;;11.57;8.10;;;8.50;1.00;;;;;;4990663;28;20659;-65
2023/01/02 04:58:07;;;;;;;9.27;7.57;;;8.60;1.00;;;;;;4990853;28;20450;-65
2023/01/02 05:00:33;;;;;;;8.93;6.90;;;8.70;1.00;;;;;;4992448;28;20180;-65
2023/01/02 05:03:01;;;;;;;13.73;8.27;;;8.70;1.00;;;;;;5010290;28;20462;-64
2023/01/02 05:05:27;;;;;;;9.93;7.13;;;8.50;1.00;;;;;;5010209;28;20582;-65
2023/01/02 05:07:53;;;;;;;12.07;7.43;;;8.70;1.00;;;;;;5008318;28;20528;-65
2023/01/02 05:10:18;;;;;;;15.17;7.10;;;8.70;1.00;;;;;;5008239;28;20275;-65
2023/01/02 05:12:44;;;;;;;11.40;8.00;;;8.60;1.00;;;;;;5008502;28;20183;-65
2023/01/02 05:15:10;;;;;;;12.47;7.27;;;8.60;1.00;;;;;;5007613;28;20270;-66
2023/01/02 05:17:40;;;;;;;8.70;7.43;;;8.70;1.00;;;;;;5008996;28;20203;-66
2023/01/02 05:20:10;;;;;;;8.70;6.60;;;8.80;1.00;;;;;;5008706;28;20454;-66
2023/01/02 05:25:26;;;;;;;8.23;7.10;;;8.60;1.00;;;;;;5005857;28;20489;-66
2023/01/02 05:27:53;;;;;;;14.10;8.00;;;8.60;1.00;;;;;;5007439;28;20459;-66
2023/01/02 05:30:19;;;;;;;10.40;7.13;;;8.70;1.00;;;;;;5007163;28;20456;-66
2023/01/02 05:32:45;;;;;;;9.63;7.60;;;8.80;1.00;;;;;;5008901;28;20524;-66
2023/01/02 05:35:10;;;;;;;8.97;6.53;;;8.70;1.00;;;;;;5008583;28;20857;-66
2023/01/02 05:37:36;;;;;;;9.07;7.43;;;8.80;1.00;;;;;;5005210;28;20199;-64
2023/01/02 05:40:02;;;;;;;14.03;9.90;;;8.70;1.00;;;;;;5007162;28;20592;-65
2023/01/02 05:42:28;;;;;;;10.40;7.50;;;8.80;1.00;;;;;;5007253;28;20176;-66
2023/01/02 05:44:53;;;;;;;17.90;10.07;;;8.80;1.00;;;;;;5007860;28;20502;-65
2023/01/02 05:47:19;;;;;;;20.93;9.77;;;8.90;1.00;;;;;;5007783;28;20622;-66
2023/01/02 05:49:44;;;;;;;15.83;8.30;;;8.90;1.00;;;;;;5009456;28;20180;-66
2023/01/02 05:52:10;;;;;;;8.80;7.00;;;8.90;1.00;;;;;;5011719;28;20169;-67
2023/01/02 05:54:36;;;;;;;12.13;8.50;;;8.90;99.90;;;;;;5009985;28;20659;-66
2023/01/02 05:57:01;;;;;;;8.93;7.93;;;8.90;1.00;;;;;;5011451;28;20204;-66
2023/01/02 05:59:27;;;;;;;13.93;8.63;;;8.80;1.00;;;;;;5011641;28;20190;-66
2023/01/02 06:01:53;;;;;;;11.80;8.20;;;8.80;1.00;;;;;;5010607;28;20550;-66
2023/01/02 06:04:18;;;;;;;28.40;9.33;;;8.90;1.00;;;;;;5011955;28;20210;-66
2023/01/02 06:06:44;;;;;;;14.57;8.73;;;8.90;1.00;;;;;;5010679;28;20273;-66
2023/01/02 06:09:14;;;;;;;17.73;10.93;;;8.90;1.00;;;;;;5011858;28;20737;-66
2023/01/02 06:11:40;;;;;;;15.30;10.37;;;8.90;1.00;;;;;;5010499;28;20180;-66
2023/01/02 06:14:07;;;;;;;12.07;9.10;;;8.90;1.00;;;;;;5010999;28;20484;-66
2023/01/02 06:16:33;;;;;;;14.87;8.27;;;8.90;1.00;;;;;;5010889;28;20454;-66
2023/01/02 06:18:59;;;;;;;11.97;7.10;;;8.90;1.00;;;;;;5012122;28;20525;-66
2023/01/02 06:21:24;;;;;;;9.50;7.10;;;9.00;99.90;;;;;;5011409;28;20620;-65
2023/01/02 06:23:56;;;;;;;9.50;6.80;;;8.90;1.00;;;;;;5010378;28;20696;-65
2023/01/02 06:26:23;;;;;;;9.77;8.00;;;8.90;99.90;;;;;;5011236;28;20200;-66
2023/01/02 06:28:51;;;;;;;12.50;7.20;;;9.00;99.90;;;;;;5011627;28;20431;-66
2023/01/02 06:31:18;;;;;;;9.17;6.97;;;9.00;99.90;;;;;;5009612;28;20427;-65
2023/01/02 06:33:44;;;;;;;10.40;7.23;;;8.90;99.90;;;;;;5010917;28;20793;-65
2023/01/02 06:36:12;;;;;;;7.97;5.37;;;8.90;99.90;;;;;;5011279;28;20513;-65
2023/01/02 06:38:38;;;;;;;24.33;7.10;;;8.90;99.90;;;;;;5012757;28;20200;-65
2023/01/02 06:41:05;;;;;;;31.37;8.60;;;8.90;99.90;;;;;;5011972;28;20896;-65
2023/01/02 06:43:32;;;;;;;16.00;7.10;;;8.90;1.00;;;;;;5012223;28;20453;-65
2023/01/02 06:46:03;;;;;;;9.40;7.50;;;8.90;1.00;;;;;;5012060;28;20425;-65
2023/01/02 06:48:30;;;;;;;23.80;7.37;;;8.90;1.00;;;;;;5014515;28;20917;-65
2023/01/02 06:50:58;;;;;;;18.60;8.03;;;8.90;1.00;;;;;;5026480;28;20504;-65
2023/01/02 06:53:24;;;;;;;14.97;7.30;;;8.90;1.00;;;;;;5032214;28;20899;-65
2023/01/02 06:55:51;;;;;;;21.97;8.10;;;8.90;1.00;;;;;;5014465;28;20504;-65
2023/01/02 06:58:17;;;;;;;10.23;6.23;;;8.90;1.00;;;;;;5012063;28;20423;-65
2023/01/02 07:00:43;;;;;;;16.10;6.10;;;8.80;1.00;;;;;;5010528;28;20415;-65
2023/01/02 07:03:09;;;;;;;14.47;7.33;;;8.80;1.00;;;;;;5011424;28;20500;-65
2023/01/02 07:05:34;;;;;;;28.60;8.90;;;8.90;1.00;;;;;;5012410;28;20221;-65
2023/01/02 07:08:00;;;;;;;47.87;8.57;;;8.90;1.00;;;;;;5005806;28;20629;-65
2023/01/02 07:10:26;;;;;;;51.77;9.60;;;8.90;1.00;;;;;;5009314;28;20575;-64
2023/01/02 07:12:51;;;;;;;15.97;8.10;;;9.00;99.90;;;;;;5010251;28;20570;-64
2023/01/02 07:15:17;;;;;;;13.97;6.50;;;9.00;99.90;;;;;;5010325;28;20533;-65
2023/01/02 07:17:43;;;;;;;62.53;11.83;;;9.10;99.90;;;;;;5010404;28;20200;-64
2023/01/02 07:20:09;;;;;;;44.70;11.00;;;9.20;99.90;;;;;;5009976;28;20180;-65
2023/01/02 07:22:35;;;;;;;27.77;8.40;;;9.30;1.00;;;;;;5006893;28;20456;-64
2023/01/02 07:25:01;;;;;;;43.93;9.07;;;9.30;1.00;;;;;;5008263;28;20798;-65
2023/01/02 07:27:31;;;;;;;53.03;12.60;;;9.40;99.90;;;;;;5009382;28;20208;-65
2023/01/02 07:29:57;;;;;;;15.90;7.13;;;9.70;1.00;;;;;;5005192;28;20212;-64
2023/01/02 07:32:23;;;;;;;26.53;7.60;;;10.40;99.90;;;;;;5009660;28;20419;-65
2023/01/02 07:34:50;;;;;;;12.63;5.40;;;11.40;1.00;;;;;;5009826;28;20263;-65
2023/01/02 07:37:16;;;;;;;7.73;5.90;;;12.20;99.90;;;;;;5009532;28;20287;-65
2023/01/02 07:39:41;;;;;;;7.00;5.67;;;13.00;1.00;;;;;;5010190;28;20585;-65
2023/01/02 07:42:07;;;;;;;6.73;5.60;;;13.60;1.00;;;;;;5009118;28;20262;-65
2023/01/02 07:44:33;;;;;;;8.63;6.20;;;14.10;1.00;;;;;;5009565;28;20200;-65
2023/01/02 07:46:59;;;;;;;10.30;6.70;;;14.50;1.00;;;;;;4989237;28;20308;-65
2023/01/02 07:49:24;;;;;;;8.53;6.10;;;14.90;99.90;;;;;;5010625;28;20180;-64
2023/01/02 07:51:50;;;;;;;14.40;6.43;;;15.50;99.90;;;;;;5009857;28;20172;-64
2023/01/02 07:54:16;;;;;;;12.50;6.60;;;16.00;99.90;;;;;;5010050;28;20802;-65
2023/01/02 07:56:41;;;;;;;10.17;5.83;;;16.50;99.90;;;;;;5009688;28;20199;-66
2023/01/02 07:59:07;;;;;;;19.60;8.40;;;16.70;99.90;;;;;;5009784;28;20625;-66
2023/01/02 08:01:33;;;;;;;14.10;7.13;;;15.90;99.90;;;;;;5008802;28;20194;-66
2023/01/02 08:03:59;;;;;;;18.63;6.97;;;15.90;99.90;;;;;;5007896;28;20203;-66
2023/01/02 08:06:24;;;;;;;17.47;6.97;;;16.40;99.90;;;;;;5009279;28;20270;-65
2023/01/02 08:08:50;;;;;;;20.00;7.50;;;17.00;99.90;;;;;;5009710;28;20177;-66
2023/01/02 08:11:19;;;;;;;19.47;6.50;;;17.70;99.90;;;;;;5008603;28;20172;-66
2023/01/02 08:13:44;;;;;;;42.70;9.33;;;18.10;99.90;;;;;;5008806;28;20279;-65
2023/01/02 08:16:16;;;;;;;9.57;5.83;;;17.80;99.90;;;;;;5008512;28;20534;-66
2023/01/02 08:18:42;;;;;;;13.93;6.20;;;17.30;99.90;;;;;;5009885;28;20263;-66
2023/01/02 08:21:08;;;;;;;8.87;6.27;;;16.50;99.90;;;;;;5008451;28;20431;-66
2023/01/02 08:23:35;;;;;;;7.87;5.87;;;15.40;99.90;;;;;;5009196;28;20585;-65
2023/01/02 08:26:04;;;;;;;15.13;5.87;;;14.30;99.90;;;;;;5007694;28;20467;-65
2023/01/02 08:28:30;;;;;;;18.37;7.70;;;13.50;99.90;;;;;;5007632;28;20521;-65
2023/01/02 08:30:56;;;;;;;20.63;7.73;;;13.00;99.90;;;;;;5007374;28;20448;-64
2023/01/02 08:33:22;;;;;;;36.30;7.80;;;12.40;99.90;;;;;;5009786;28;20419;-64
2023/01/02 08:35:47;;;;;;;14.03;6.37;;;12.10;99.90;;;;;;5009357;28;20422;-63
2023/01/02 08:38:13;;;;;;;10.60;6.67;;;11.80;1.00;;;;;;5010714;28;20498;-64
2023/01/02 08:40:39;;;;;;;17.73;6.33;;;11.60;1.00;;;;;;5010611;28;20172;-63
2023/01/02 08:43:08;;;;;;;21.17;7.23;;;10.90;1.00;;;;;;5010925;28;20200;-64
2023/01/02 08:45:34;;;;;;;13.43;6.87;;;11.00;10.60;;;;;;5010155;28;20792;-64
2023/01/02 08:48:00;;;;;;;16.57;8.10;;;11.10;64.00;;;;;;5010729;28;20431;-63
2023/01/02 08:50:26;;;;;;;47.47;11.03;;;11.10;1.00;;;;;;5009986;28;20482;-63
2023/01/02 08:52:52;;;;;;;40.77;8.93;;;11.10;1.00;;;;;;5010782;28;20659;-64
2023/01/02 08:55:17;;;;;;;23.03;8.40;;;11.10;1.00;;;;;;4993849;28;20515;-64
2023/01/02 08:57:43;;;;;;;24.10;7.53;;;11.10;17.60;;;;;;4990958;28;20691;-64
2023/01/02 09:00:10;;;;;;;26.53;7.43;;;11.10;67.10;;;;;;4990299;28;20169;-64
2023/01/02 09:02:36;;;;;;;18.23;6.60;;;11.00;99.90;;;;;;4991367;28;20455;-63
2023/01/02 09:05:02;;;;;;;8.90;6.40;;;11.00;99.90;;;;;;4991149;28;20460;-59
2023/01/02 09:07:27;;;;;;;7.97;5.60;;;10.80;99.90;;;;;;4994124;28;20189;-63
2023/01/02 09:09:53;;;;;;;7.90;6.30;;;10.80;99.90;;;;;;5003287;28;20204;-64
2023/01/02 09:12:19;;;;;;;13.93;7.50;;;10.70;99.90;;;;;;5012020;28;20171;-64
2023/01/02 09:14:45;;;;;;;39.63;9.73;;;10.80;99.90;;;;;;5013733;28;20180;-63
2023/01/02 09:17:10;;;;;;;39.33;10.33;;;10.80;99.90;;;;;;5014673;28;20580;-64
2023/01/02 09:19:36;;;;;;;58.10;14.20;;;10.90;99.90;;;;;;5014824;28;20199;-64
2023/01/02 09:22:03;;;;;;;17.53;7.40;;;10.90;99.90;;;;;;5012211;28;20562;-63
2023/01/02 09:24:28;;;;;;;14.97;7.70;;;10.80;99.90;;;;;;5012532;28;20672;-64
2023/01/02 09:26:54;;;;;;;10.87;6.47;;;10.80;99.90;;;;;;5029069;22;20486;-66
2023/01/02 09:29:20;;;;;;;14.63;6.80;;;10.90;99.90;;;;;;4992956;28;20184;-66
2023/01/02 09:31:46;;;;;;;31.77;9.30;;;10.80;99.90;;;;;;4993370;28;20620;-66
2023/01/02 09:34:12;;;;;;;68.60;12.03;;;10.90;99.90;;;;;;4994164;28;20248;-67
2023/01/02 09:36:38;;;;;;;51.90;9.90;;;10.80;99.90;;;;;;4994170;28;20498;-66
2023/01/02 09:39:04;;;;;;;26.30;9.17;;;10.90;99.90;;;;;;4993454;28;20446;-67
2023/01/02 09:41:41;;;;;;;43.13;9.90;;;10.80;99.90;;;;;;4992901;28;20488;-68
2023/01/02 09:44:16;;;;;;;16.07;7.67;;;10.80;99.90;;;;;;4991773;28;20467;-67
2023/01/02 09:46:50;;;;;;;12.27;8.37;;;10.80;99.90;;;;;;4993507;28;20479;-68
2023/01/02 09:49:32;;;;;;;10.07;6.67;;;10.80;99.90;;;;;;4993027;28;20465;-67
2023/01/02 09:51:58;;;;;;;14.00;7.30;;;10.80;99.90;;;;;;4973685;28;20432;-66
2023/01/02 09:54:30;;;;;;;14.37;8.03;;;10.80;99.90;;;;;;4990511;28;20462;-68
2023/01/02 09:57:35;;;;;;;34.73;9.07;;;10.80;99.90;;;;;;4991204;28;20200;-67
2023/01/02 10:00:20;;;;;;;11.60;6.83;;;10.90;99.90;;;;;;4979543;28;20514;-67
2023/01/02 10:03:10;;;;;;;23.93;8.80;;;10.80;99.90;;;;;;5004975;28;20953;-67
2023/01/02 10:05:50;;;;;;;11.20;6.03;;;10.70;1.00;;;;;;4975558;28;20401;-68
2023/01/02 10:08:47;;;;;;;70.73;15.27;;;10.80;1.00;;;;;;4994558;28;20590;-67
2023/01/02 10:11:19;;;;;;;33.97;10.13;;;10.90;99.90;;;;;;4994306;28;20400;-67
2023/01/02 10:13:59;;;;;;;41.17;9.10;;;10.90;1.00;;;;;;4977094;28;20459;-68
2023/01/02 10:16:30;;;;;;;24.80;7.13;;;11.00;99.90;;;;;;4993587;28;20433;-67
2023/01/02 10:19:03;;;;;;;14.80;7.20;;;11.00;99.90;;;;;;4983679;28;20527;-67
2023/01/02 10:21:34;;;;;;;47.33;11.53;;;10.90;99.90;;;;;;4973681;28;20413;-66
2023/01/02 10:24:20;;;;;;;15.87;6.50;;;10.80;1.00;;;;;;4974564;28;20549;-67
2023/01/02 10:26:52;;;;;;;13.30;7.10;;;11.00;99.90;;;;;;4991488;28;20472;-67
2023/01/02 10:29:29;;;;;;;10.37;6.07;;;11.00;1.00;;;;;;4992824;28;20451;-66
2023/01/02 10:32:00;;;;;;;8.33;6.30;;;11.10;99.90;;;;;;4992662;28;20424;-66
2023/01/02 10:34:41;;;;;;;7.70;6.53;;;11.10;99.90;;;;;;4993768;28;20439;-66
2023/01/02 10:37:18;;;;;;;13.70;8.30;;;11.10;99.90;;;;;;4993444;28;20447;-68
2023/01/02 10:39:47;;;;;;;9.27;7.90;;;11.00;1.00;;;;;;4994246;28;20454;-67
2023/01/02 10:42:14;;;;;;;72.83;15.00;;;11.10;1.00;;;;;;4993169;28;20510;-68
2023/01/02 10:44:42;;;;;;;81.17;14.80;;;11.10;1.00;;;;;;4990830;28;20585;-66
2023/01/02 10:47:12;;;;;;;14.67;7.60;;;11.10;1.00;;;;;;4992345;28;20455;-67
2023/01/02 10:49:40;;;;;;;20.47;9.17;;;11.20;99.90;;;;;;4992291;28;20428;-66
2023/01/02 10:52:16;;;;;;;24.97;9.10;;;11.20;99.90;;;;;;4991800;28;20499;-66
2023/01/02 10:54:53;;;;;;;11.60;6.93;;;11.30;99.90;;;;;;4991587;28;20553;-66
2023/01/02 10:57:49;;;;;;;45.10;10.07;;;11.30;99.90;;;;;;4992421;28;20917;-67
2023/01/02 11:00:18;;;;;;;42.27;9.23;;;11.30;99.90;;;;;;4991695;28;20432;-66
2023/01/02 11:02:53;;;;;;;13.80;7.20;;;11.40;99.90;;;;;;4973238;28;20433;-66
2023/01/02 11:05:22;;;;;;;11.77;7.27;;;11.30;99.90;;;;;;4983985;28;20527;-65
2023/01/02 11:07:50;;;;;;;9.70;6.37;;;11.40;99.90;;;;;;4974745;28;20452;-65
2023/01/02 11:10:33;;;;;;;14.57;7.50;;;11.40;99.90;;;;;;4989335;28;20428;-66
2023/01/02 11:13:03;;;;;;;20.57;8.37;;;11.50;99.90;;;;;;4992719;28;20440;-65
2023/01/02 11:15:33;;;;;;;20.90;8.70;;;11.60;99.90;;;;;;4991607;28;20503;-65
2023/01/02 11:18:00;;;;;;;65.60;14.70;;;11.60;99.90;;;;;;4990729;28;20782;-65
2023/01/02 11:20:32;;;;;;;38.23;10.90;;;11.50;99.90;;;;;;4991513;28;20488;-65
2023/01/02 11:23:01;;;;;;;15.20;7.03;;;11.60;99.90;;;;;;4992241;28;20409;-67
2023/01/02 11:25:39;;;;;;;40.20;9.43;;;11.60;99.90;;;;;;4992256;28;20404;-66
2023/01/02 11:28:05;;;;;;;163.47;20.20;;;11.60;99.90;;;;;;4991712;28;20522;-67
2023/01/02 11:30:47;;;;;;;68.93;12.93;;;11.70;99.90;;;;;;4989964;28;20510;-65
2023/01/02 11:33:12;;;;;;;20.03;7.07;;;11.80;68.40;;;;;;4991413;28;20843;-67
2023/01/02 11:36:04;;;;;;;12.53;5.93;;;11.80;19.20;;;;;;4991772;28;20474;-67
2023/01/02 11:38:46;;;;;;;13.27;8.40;;;11.90;14.60;;;;;;4979483;28;20524;-66
2023/01/02 11:44:40;;;;;;;25.70;8.33;;;12.10;1.00;;;;;;4991458;28;20458;-66
2023/01/02 11:47:10;;;;;;;12.43;7.80;;;12.20;1.00;;;;;;4972230;28;20421;-66
2023/01/02 11:49:42;;;;;;;46.63;10.40;;;12.30;1.00;;;;;;4972489;28;20406;-66
2023/01/02 11:52:14;;;;;;;49.33;11.00;;;12.40;1.00;;;;;;4983655;28;20793;-65
2023/01/02 11:54:45;;;;;;;51.33;11.23;;;12.60;1.00;;;;;;4997660;28;20499;-66
2023/01/02 11:57:23;;;;;;;70.70;15.63;;;12.70;1.00;;;;;;4999590;28;20487;-66
2023/01/02 11:59:54;;;;;;;52.67;12.03;;;12.80;1.00;;;;;;5002695;28;20398;-64
2023/01/02 12:02:28;;;;;;;47.43;10.07;;;12.80;1.00;;;;;;5003293;28;20843;-68
2023/01/02 12:04:54;;;;;;;11.20;6.40;;;12.90;1.00;;;;;;4993939;28;20813;-64
2023/01/02 12:07:41;;;;;;;22.27;10.63;;;12.90;1.00;;;;;;5006667;28;20442;-66
2023/01/02 12:10:23;;;;;;;67.10;14.50;;;12.90;1.00;;;;;;5008380;28;20161;-68
2023/01/02 12:13:04;;;;;;;103.50;16.73;;;13.10;1.00;;;;;;4991455;28;20413;-67
2023/01/02 12:15:54;;;;;;;17.33;7.20;;;13.00;1.00;;;;;;4991472;28;20412;-67
2023/01/02 12:19:03;;;;;;;41.90;10.00;;;13.10;1.00;;;;;;4991894;28;20668;-65
2023/01/02 12:21:59;;;;;;;10.43;5.10;;;13.10;1.00;;;;;;4991053;28;20497;-66
2023/01/02 12:24:48;;;;;;;11.30;5.47;;;13.10;1.00;;;;;;4963777;28;20511;-67
2023/01/02 12:27:20;;;;;;;23.17;5.60;;;13.20;1.00;;;;;;4971999;28;20460;-67
2023/01/02 12:30:01;;;;;;;16.73;6.13;;;13.30;1.00;;;;;;4971606;28;20898;-66
2023/01/02 12:32:49;;;;;;;10.00;5.20;;;13.20;1.00;;;;;;4971769;28;20547;-69
2023/01/02 12:35:40;;;;;;;29.40;6.50;;;13.10;1.00;;;;;;4991358;28;20811;-65
2023/01/02 12:38:13;;;;;;;8.10;6.10;;;13.10;1.00;;;;;;4992102;28;20434;-68
2023/01/02 12:41:03;;;;;;;13.67;6.80;;;13.20;1.00;;;;;;4991155;28;20538;-66
2023/01/02 12:43:47;;;;;;;15.80;5.40;;;13.20;1.00;;;;;;4991730;28;20463;-68
2023/01/02 12:46:30;;;;;;;21.43;5.70;;;13.30;1.00;;;;;;4990951;28;20958;-68
2023/01/02 12:49:15;;;;;;;9.90;5.10;;;13.40;1.00;;;;;;4991633;28;20497;-67
2023/01/02 12:52:05;;;;;;;12.00;5.67;;;13.50;1.00;;;;;;4990657;28;20750;-68
2023/01/02 12:54:43;;;;;;;14.43;5.73;;;13.60;1.00;;;;;;4990775;28;20471;-67
2023/01/02 12:57:21;;;;;;;7.77;4.13;;;13.70;1.00;;;;;;4991043;28;20420;-67
2023/01/02 13:00:03;;;;;;;13.90;4.97;;;13.80;1.00;;;;;;4990210;28;20404;-67
2023/01/02 13:02:37;;;;;;;9.17;4.80;;;14.00;1.00;;;;;;4988316;28;20446;-66
2023/01/02 13:05:19;;;;;;;13.63;5.30;;;14.10;1.00;;;;;;4988798;28;20459;-68
2023/01/02 13:07:57;;;;;;;11.60;4.57;;;14.10;1.00;;;;;;4987196;28;20490;-67
2023/01/02 13:10:26;;;;;;;9.00;4.80;;;14.10;1.00;;;;;;4989655;28;20466;-67
2023/01/02 13:12:55;;;;;;;9.10;4.50;;;14.00;1.00;;;;;;4989946;28;20420;-66
2023/01/02 13:15:22;;;;;;;11.53;4.33;;;14.10;1.00;;;;;;4987707;28;20465;-67